createdAt,value
2023-02-12T00:05:22.160Z,0
2023-02-12T00:11:01.383Z,0
2023-02-12T00:16:34.104Z,0
2023-02-12T00:21:41.256Z,0
2023-02-12T00:27:38.610Z,0
2023-02-12T00:33:03.046Z,0
2023-02-12T00:38:27.827Z,0
2023-02-12T00:43:53.468Z,0
2023-02-12T00:49:35.657Z,0
2023-02-12T00:55:04.840Z,0
2023-02-12T01:00:35.955Z,0
2023-02-12T01:06:04.254Z,0
2023-02-12T01:11:38.977Z,0
2023-02-12T01:17:18.674Z,0
2023-02-12T01:22:58.472Z,0
2023-02-12T01:28:39.034Z,0
2023-02-12T01:33:49.326Z,0
2023-02-12T01:39:46.510Z,0
2023-02-12T01:45:09.961Z,0
2023-02-12T01:50:35.186Z,0
2023-02-12T01:56:07.472Z,0
2023-02-12T02:01:53.321Z,0
2023-02-12T02:07:21.665Z,0
2023-02-12T02:12:57.716Z,0
2023-02-12T02:18:17.794Z,0
2023-02-12T02:23:57.188Z,0
2023-02-12T02:29:42.379Z,0
2023-02-12T02:35:01.500Z,0
2023-02-12T02:40:24.372Z,0
2023-02-12T02:46:09.396Z,0
2023-02-12T02:51:42.167Z,0
2023-02-12T02:57:04.463Z,0
2023-02-12T03:02:49.350Z,0
2023-02-12T03:08:11.408Z,0
2023-02-12T03:13:43.177Z,0
2023-02-12T03:19:34.396Z,0
2023-02-12T03:25:07.259Z,0
2023-02-12T03:30:24.329Z,0
2023-02-12T03:35:46.328Z,0
2023-02-12T03:41:40.494Z,0
2023-02-12T03:47:01.063Z,0
2023-02-12T03:52:29.968Z,0
2023-02-12T03:58:24.428Z,0
2023-02-12T04:03:55.933Z,0
2023-02-12T04:09:14.321Z,0
2023-02-12T04:14:48.977Z,0
2023-02-12T04:20:29.557Z,0
2023-02-12T04:26:06.642Z,0
2023-02-12T04:31:18.176Z,0
2023-02-12T04:37:04.040Z,0
2023-02-12T04:42:31.981Z,0
2023-02-12T04:48:10.740Z,0
2023-02-12T04:53:26.814Z,0
2023-02-12T04:59:17.784Z,0
2023-02-12T05:04:56.041Z,0
2023-02-12T05:10:13.679Z,0
2023-02-12T05:15:49.868Z,0
2023-02-12T05:21:14.685Z,0
2023-02-12T05:26:57.011Z,0
2023-02-12T05:32:16.332Z,0
2023-02-12T05:37:54.105Z,0
2023-02-12T05:43:30.831Z,0
2023-02-12T05:48:52.176Z,0
2023-02-12T05:54:45.656Z,0
2023-02-12T06:00:10.291Z,0
2023-02-12T06:05:30.656Z,0
2023-02-12T06:11:07.697Z,0
2023-02-12T06:16:47.763Z,0
2023-02-12T06:22:11.494Z,0
2023-02-12T06:27:52.503Z,0
2023-02-12T06:33:19.709Z,0
2023-02-12T06:39:02.988Z,0
2023-02-12T06:44:29.373Z,0
2023-02-12T06:50:08.105Z,0
2023-02-12T06:55:32.494Z,0
2023-02-12T07:00:51.856Z,0
2023-02-12T07:06:36.922Z,0
2023-02-12T07:12:18.124Z,0
2023-02-12T07:17:41.537Z,0
2023-02-12T07:23:19.182Z,0
2023-02-12T07:28:55.743Z,0
2023-02-12T07:34:15.370Z,0
2023-02-12T07:39:43.792Z,0
2023-02-12T07:45:39.633Z,0
2023-02-12T07:51:10.884Z,0
2023-02-12T07:56:29.754Z,0
2023-02-12T08:02:09.955Z,0
2023-02-12T08:07:39.425Z,0
2023-02-12T08:13:04.275Z,0
2023-02-12T08:19:10.834Z,0
2023-02-12T08:24:33.667Z,0
2023-02-12T08:30:05.462Z,0
2023-02-12T08:35:22.905Z,0
2023-02-12T08:40:45.920Z,0
2023-02-12T08:46:38.729Z,0
2023-02-12T08:52:00.202Z,0
2023-02-12T08:57:55.613Z,0
2023-02-12T09:03:05.639Z,0
2023-02-12T09:08:53.366Z,0
2023-02-12T09:14:26.083Z,0
2023-02-12T09:19:54.558Z,0
2023-02-12T09:25:28.401Z,0
2023-02-12T09:30:55.952Z,3.6
2023-02-12T09:36:27.116Z,4.8
2023-02-12T09:42:06.963Z,5.9
2023-02-12T09:47:47.661Z,5.9
2023-02-12T09:53:15.688Z,3.6
2023-02-12T09:58:49.172Z,7.2
2023-02-12T10:04:48.707Z,7.2
2023-02-12T10:10:08.031Z,11.9
2023-02-12T10:15:49.178Z,14.4
2023-02-12T10:21:10.988Z,10.7
2023-02-12T10:26:44.298Z,10.7
2023-02-12T10:32:36.088Z,10.7
2023-02-12T10:37:46.927Z,13.2
2023-02-12T10:43:25.255Z,13.2
2023-02-12T10:48:55.591Z,14.4
2023-02-12T10:54:46.108Z,11.9
2023-02-12T11:00:10.613Z,10.7
2023-02-12T11:05:47.385Z,9.6
2023-02-12T11:11:25.842Z,7.2
2023-02-12T11:16:46.403Z,3.6
2023-02-12T11:22:25.622Z,7.2
2023-02-12T11:27:52.889Z,5.9
2023-02-12T11:33:23.150Z,4.8
2023-02-12T11:39:08.708Z,3.6
2023-02-12T11:44:43.899Z,3.6
2023-02-12T11:50:34.034Z,8.4
2023-02-12T11:55:54.883Z,7.2
2023-02-12T12:01:26.441Z,5.9
2023-02-12T12:06:48.947Z,7.2
2023-02-12T12:12:31.734Z,5.9
2023-02-12T12:18:04.848Z,8.4
2023-02-12T12:23:32.890Z,8.4
2023-02-12T12:29:05.204Z,8.4
2023-02-12T12:34:59.197Z,8.4
2023-02-12T12:40:34.170Z,7.2
2023-02-12T12:45:53.376Z,3.6
2023-02-12T12:51:49.686Z,4.8
2023-02-12T12:57:00.988Z,4.8
2023-02-12T13:02:42.194Z,4.8
2023-02-12T13:08:22.952Z,5.9
2023-02-12T13:14:00.129Z,7.2
2023-02-12T13:19:15.334Z,7.2
2023-02-12T13:25:15.634Z,7.2
2023-02-12T13:30:37.789Z,4.8
2023-02-12T13:36:24.970Z,5.9
2023-02-12T13:41:45.596Z,7.2
2023-02-12T13:47:43.371Z,5.9
2023-02-12T13:53:05.414Z,7.2
2023-02-12T13:58:29.965Z,5.9
2023-02-12T14:04:11.238Z,5.9
2023-02-12T14:09:43.084Z,3.6
2023-02-12T14:15:28.417Z,4.8
2023-02-12T14:21:18.690Z,4.8
2023-02-12T14:26:30.109Z,3.6
2023-02-12T14:32:08.213Z,5.9
2023-02-12T14:38:09.441Z,7.2
2023-02-12T14:43:28.202Z,7.2
2023-02-12T14:49:09.736Z,4.8
2023-02-12T14:54:34.161Z,5.9
2023-02-12T15:00:30.553Z,4.8
2023-02-12T15:05:49.316Z,4.8
2023-02-12T15:11:33.176Z,4.8
2023-02-12T15:17:03.210Z,4.8
2023-02-12T15:22:30.212Z,7.2
2023-02-12T15:28:12.574Z,3.6
2023-02-12T15:33:46.824Z,3.6
2023-02-12T15:39:30.761Z,3.6
2023-02-12T15:45:01.539Z,0
2023-02-12T15:50:19.774Z,2.4
2023-02-12T15:55:55.539Z,2.4
2023-02-12T16:01:26.340Z,0
2023-02-12T16:06:54.683Z,0
2023-02-12T16:12:30.278Z,0
2023-02-12T16:18:13.192Z,0
2023-02-12T16:23:52.321Z,0
2023-02-12T16:29:27.741Z,0
2023-02-12T16:34:40.417Z,0
2023-02-12T16:40:14.861Z,0
2023-02-12T16:45:50.703Z,0
2023-02-12T16:51:38.116Z,0
2023-02-12T16:57:12.729Z,0
2023-02-12T17:02:39.925Z,0
2023-02-12T17:08:09.887Z,0
2023-02-12T17:14:01.352Z,0
2023-02-12T17:19:08.244Z,0
2023-02-12T17:24:39.606Z,0
2023-02-12T17:30:15.974Z,0
2023-02-12T17:35:51.180Z,0
2023-02-12T17:41:41.987Z,2.4
2023-02-12T17:47:16.773Z,0
2023-02-12T17:58:21.541Z,0
2023-02-12T18:04:00.621Z,0
2023-02-12T18:09:27.093Z,0
2023-02-12T18:14:58.874Z,0
2023-02-12T18:20:34.944Z,0
2023-02-12T18:25:51.878Z,0
2023-02-12T18:31:37.331Z,0
2023-02-12T18:37:19.828Z,0
2023-02-12T18:42:49.189Z,0
2023-02-12T18:48:09.645Z,0
2023-02-12T18:53:53.772Z,0
2023-02-12T18:59:17.315Z,0
2023-02-12T19:05:02.019Z,0
2023-02-12T19:10:30.614Z,0
2023-02-12T19:15:48.057Z,0
2023-02-12T19:21:32.293Z,0
2023-02-12T19:27:17.034Z,0
2023-02-12T19:32:41.762Z,0
2023-02-12T19:38:04.091Z,0
2023-02-12T19:43:42.426Z,0
2023-02-12T19:49:14.501Z,0
2023-02-12T19:55:00.494Z,0
2023-02-12T20:00:17.532Z,0
2023-02-12T20:06:03.414Z,0
2023-02-12T20:11:40.076Z,0
2023-02-12T20:16:59.746Z,0
2023-02-12T20:22:44.145Z,0
2023-02-12T20:28:10.383Z,0
2023-02-12T20:33:32.488Z,0
2023-02-12T20:38:58.648Z,0
2023-02-12T20:44:46.857Z,0
2023-02-12T20:50:18.818Z,0
2023-02-12T20:56:00.223Z,0
2023-02-12T21:01:12.908Z,0
2023-02-12T21:07:10.461Z,0
2023-02-12T21:12:41.022Z,0
2023-02-12T21:17:57.390Z,0
2023-02-12T21:23:22.486Z,0
2023-02-12T21:29:12.227Z,0
2023-02-12T21:34:30.436Z,0
2023-02-12T21:40:21.082Z,0
2023-02-12T21:46:00.006Z,0
2023-02-12T21:51:33.324Z,0
2023-02-12T21:56:51.484Z,0
2023-02-12T22:02:38.733Z,0
2023-02-12T22:07:46.655Z,0
2023-02-12T22:13:29.171Z,0
2023-02-12T22:19:07.205Z,0
2023-02-12T22:24:48.052Z,0
2023-02-12T22:30:11.626Z,0
2023-02-12T22:35:52.739Z,0
2023-02-12T22:41:03.880Z,0
2023-02-12T22:46:46.308Z,0
2023-02-12T22:52:18.099Z,0
2023-02-12T22:57:49.103Z,0
2023-02-12T23:03:23.420Z,0
2023-02-12T23:09:10.451Z,0
2023-02-12T23:14:31.039Z,0
2023-02-12T23:20:03.912Z,0
2023-02-12T23:25:27.245Z,0
2023-02-12T23:30:59.930Z,0
2023-02-12T23:36:36.875Z,0
2023-02-12T23:42:21.677Z,0
2023-02-12T23:47:49.817Z,0
2023-02-12T23:53:29.655Z,0
2023-02-12T23:58:45.483Z,0
